sensor_id;sensor_type;location;lat;lon;timestamp;pressure;altitude;pressure_sealevel;temperature
77385;BMP280;66444;49.680;18.538;2024-01-27T00:03:24;97814.81117262288;;;5.569935904163867
77385;BMP280;66444;49.680;18.538;2024-01-27T00:08:36;97840.9995501234;;;5.53428597827442
77385;BMP280;66444;49.680;18.538;2024-01-27T00:13:48;97842.36807692012;;;5.508821570873261
77385;BMP280;66444;49.680;18.538;2024-01-27T00:18:59;97876.36135790288;;;5.386590389721095
77385;BMP280;66444;49.680;18.538;2024-01-27T00:24:13;97899.78711239209;;;5.264355855807662
77385;BMP280;66444;49.680;18.538;2024-01-27T00:29:25;97888.80558621648;;;5.055530770868063
77385;BMP280;66444;49.680;18.538;2024-01-27T00:34:37;97911.57458735604;;;4.8263212437275795
77385;BMP280;66444;49.680;18.538;2024-01-27T00:39:48;97908.59704478426;;;4.704071342991665
77385;BMP280;66444;49.680;18.538;2024-01-27T00:45:00;97927.11260522617;;;4.653132894821465
77385;BMP280;66444;49.680;18.538;2024-01-27T00:50:12;97912.87218385027;;;4.663320631021634
77385;BMP280;66444;49.680;18.538;2024-01-27T00:55:24;97928.82242056885;;;4.56144222128205
77385;BMP280;66444;49.680;18.538;2024-01-27T01:00:36;97933.2295714301;;;4.418808536091819
77385;BMP280;66444;49.680;18.538;2024-01-27T01:05:47;97953.2953732888;;;4.378055216418579
77385;BMP280;66444;49.680;18.538;2024-01-27T01:10:59;97971.66416088052;;;4.428996807802468
77385;BMP280;66444;49.680;18.538;2024-01-27T01:16:11;97975.80013268245;;;4.490125949122012
77385;BMP280;66444;49.680;18.538;2024-01-27T01:21:23;97994.17187729791;;;4.541066259937361
77385;BMP280;66444;49.680;18.538;2024-01-27T01:26:35;97979.86850388176;;;4.602193864574656
77385;BMP280;66444;49.680;18.538;2024-01-27T01:31:47;97981.93532989305;;;4.632757352571934
77385;BMP280;66444;49.680;18.538;2024-01-27T01:36:59;97977.66544198056;;;4.673508343938738
77385;BMP280;66444;49.680;18.538;2024-01-27T01:42:11;97971.82755676247;;;4.704071342991665
77385;BMP280;66444;49.680;18.538;2024-01-27T01:47:23;97963.85215370952;;;4.755009209085256
77385;BMP280;66444;49.680;18.538;2024-01-27T01:52:36;97969.04965710538;;;4.805946493102238
77385;BMP280;66444;49.680;18.538;2024-01-27T01:57:49;97983.79176149897;;;4.816133880056441
77385;BMP280;66444;49.680;18.538;2024-01-27T02:03:02;97962.71081692864;;;4.816133880056441
77385;BMP280;66444;49.680;18.538;2024-01-27T02:08:15;97973.74917179819;;;4.836508584115654
77385;BMP280;66444;49.680;18.538;2024-01-27T02:13:26;97974.2469297166;;;4.85688319504261
77385;BMP280;66444;49.680;18.538;2024-01-27T02:18:38;98007.4376784925;;;4.867070465581492
77385;BMP280;66444;49.680;18.538;2024-01-27T02:23:50;98030.1567805536;;;4.8263212437275795
77385;BMP280;66444;49.680;18.538;2024-01-27T02:29:02;98004.44277951881;;;4.744821682432667
77385;BMP280;66444;49.680;18.538;2024-01-27T02:34:14;97979.23232229934;;;4.683696033572778
77385;BMP280;66444;49.680;18.538;2024-01-27T02:39:26;97983.50235629073;;;4.642945135338232
77385;BMP280;66444;49.680;18.538;2024-01-27T02:44:38;97986.06841143631;;;4.693883699923754
77385;BMP280;66444;49.680;18.538;2024-01-27T02:49:50;97993.97222935129;;;4.693883699923754
77385;BMP280;66444;49.680;18.538;2024-01-27T02:55:02;97972.96485409146;;;4.642945135338232
77385;BMP280;66444;49.680;18.538;2024-01-27T03:00:18;97976.09857050529;;;4.663320631021634
77385;BMP280;66444;49.680;18.538;2024-01-27T03:05:30;97983.7179449107;;;4.678602191666141
77385;BMP280;66444;49.680;18.538;2024-01-27T03:10:42;97989.77055035807;;;4.683696033572778
77385;BMP280;66444;49.680;18.538;2024-01-27T03:15:54;97994.47178876512;;;4.714258962776512
77385;BMP280;66444;49.680;18.538;2024-01-27T03:21:06;97980.23046937284;;;4.724446559278294
77385;BMP280;66444;49.680;18.538;2024-01-27T03:26:18;97984.93099720475;;;4.755009209085256
77385;BMP280;66444;49.680;18.538;2024-01-27T03:31:30;98000.17162813689;;;4.785571649344638
77385;BMP280;66444;49.680;18.538;2024-01-27T03:36:42;97985.3584932438;;;4.8263212437275795
77385;BMP280;66444;49.680;18.538;2024-01-27T03:41:54;98002.23771370258;;;4.816133880056441
77385;BMP280;66444;49.680;18.538;2024-01-27T03:47:06;98008.57598108379;;;4.805946493102238
77385;BMP280;66444;49.680;18.538;2024-01-27T03:52:18;98012.8470809851;;;4.765196712454781
77385;BMP280;66444;49.680;18.538;2024-01-27T03:57:30;98033.99252658965;;;4.714258962776512
77385;BMP280;66444;49.680;18.538;2024-01-27T04:02:42;98021.81934198092;;;4.755009209085256
77385;BMP280;66444;49.680;18.538;2024-01-27T04:07:54;98046.03433242824;;;4.7753841925412415
77385;BMP280;66444;49.680;18.538;2024-01-27T04:13:07;98050.73798711195;;;4.805946493102238
77385;BMP280;66444;49.680;18.538;2024-01-27T04:18:19;98051.73900303163;;;4.846695901220665
77385;BMP280;66444;49.680;18.538;2024-01-27T04:23:31;98061.77951764225;;;4.8263212437275795
77385;BMP280;66444;49.680;18.538;2024-01-27T04:28:43;98059.36156036217;;;4.861976833222434
77385;BMP280;66444;49.680;18.538;2024-01-27T04:33:55;98063.49807124185;;;4.923100037360564
77385;BMP280;66444;49.680;18.538;2024-01-27T04:39:07;98057.65866588015;;;4.95366132510826
77385;BMP280;66444;49.680;18.538;2024-01-27T04:44:20;98072.12170291449;;;4.979128904826939
77385;BMP280;66444;49.680;18.538;2024-01-27T04:49:32;98077.96098981306;;;4.948567791702226
77385;BMP280;66444;49.680;18.538;2024-01-27T04:54:44;98089.43816554852;;;5.0402505024336275
77385;BMP280;66444;49.680;18.538;2024-01-27T04:59:52;98091.72185551921;;;5.106464620633051
77385;BMP280;66444;49.680;18.538;2024-01-27T05:05:01;98118.87101991271;;;5.111557973595336
77385;BMP280;66444;49.680;18.538;2024-01-27T05:10:11;98118.30331797771;;;5.1421179691329595
77385;BMP280;66444;49.680;18.538;2024-01-27T05:15:19;98130.41860916976;;;5.152304587746039
77385;BMP280;66444;49.680;18.538;2024-01-27T05:20:28;98109.8932874495;;;5.121744662057608
77385;BMP280;66444;49.680;18.538;2024-01-27T05:25:36;98128.84996236188;;;5.1421179691329595
77385;BMP280;66444;49.680;18.538;2024-01-27T05:30:45;98119.871783264;;;5.152304587746039
77385;BMP280;66444;49.680;18.538;2024-01-27T05:35:54;98122.5754629365;;;5.10137126185
77385;BMP280;66444;49.680;18.538;2024-01-27T05:41:02;98118.43640637812;;;5.0402505024336275
77385;BMP280;66444;49.680;18.538;2024-01-27T05:46:11;98120.57139042116;;;5.019876729696989
77385;BMP280;66444;49.680;18.538;2024-01-27T05:51:21;98122.20444599456;;;4.979128904826939
77385;BMP280;66444;49.680;18.538;2024-01-27T05:56:30;98117.99972097787;;;4.968941890401766
77385;BMP280;66444;49.680;18.538;2024-01-27T06:01:39;98120.69875204313;;;4.918006469029933
77385;BMP280;66444;49.680;18.538;2024-01-27T06:06:47;98128.66718007346;;;4.867070465581492
77385;BMP280;66444;49.680;18.538;2024-01-27T06:11:58;98144.4800973423;;;4.867070465581492
77385;BMP280;66444;49.680;18.538;2024-01-27T06:17:07;98148.18159953659;;;4.85688319504261
77385;BMP280;66444;49.680;18.538;2024-01-27T06:22:15;98147.39685815397;;;4.85178955104202
77385;BMP280;66444;49.680;18.538;2024-01-27T06:27:24;98144.4800973423;;;4.867070465581492
77385;BMP280;66444;49.680;18.538;2024-01-27T06:32:32;98153.45250994593;;;4.85688319504261
77385;BMP280;66444;49.680;18.538;2024-01-27T06:37:41;98145.48643513408;;;4.907819314906374
77385;BMP280;66444;49.680;18.538;2024-01-27T06:42:49;98153.33328331994;;;4.958754852693528
77385;BMP280;66444;49.680;18.538;2024-01-27T06:47:58;98160.73776171455;;;4.938380707427859
77385;BMP280;66444;49.680;18.538;2024-01-27T06:53:06;98168.76100277067;;;4.836508584115654
77385;BMP280;66444;49.680;18.538;2024-01-27T06:58:15;98180.36785260958;;;4.8263212437275795
77385;BMP280;66444;49.680;18.538;2024-01-27T07:03:23;98180.14296627823;;;4.790665369015187
77385;BMP280;66444;49.680;18.538;2024-01-27T07:08:32;98182.27289254808;;;4.770290455408395
77385;BMP280;66444;49.680;18.538;2024-01-27T07:13:41;98178.34735370817;;;4.744821682432667
77385;BMP280;66444;49.680;18.538;2024-01-27T07:18:50;98181.4877803558;;;4.765196712454781
77385;BMP280;66444;49.680;18.538;2024-01-27T07:23:59;98194.15737751633;;;4.744821682432667
77385;BMP280;66444;49.680;18.538;2024-01-27T07:29:07;98198.86884750088;;;4.7753841925412415
77385;BMP280;66444;49.680;18.538;2024-01-27T07:34:16;98195.168974684;;;4.785571649344638
77385;BMP280;66444;49.680;18.538;2024-01-27T07:39:24;98190.9092725963;;;4.8263212437275795
77385;BMP280;66444;49.680;18.538;2024-01-27T07:44:32;98203.58162351491;;;5.045343931065872
77385;BMP280;66444;49.680;18.538;2024-01-27T07:49:41;98188.9293003713;;;5.172677755123004
77385;BMP280;66444;49.680;18.538;2024-01-27T07:54:49;98191.00121786303;;;5.20323733156547
77385;BMP280;66444;49.680;18.538;2024-01-27T07:59:58;98210.40279149545;;;5.294914803607389
77385;BMP280;66444;49.680;18.538;2024-01-27T08:05:07;98205.91283943327;;;5.300007941201329
77385;BMP280;66444;49.680;18.538;2024-01-27T08:10:21;98208.26737829942;;;5.315287319058553
77385;BMP280;66444;49.680;18.538;2024-01-27T08:15:30;98200.41899206907;;;5.264355855807662
77385;BMP280;66444;49.680;18.538;2024-01-27T08:20:38;98205.69351372718;;;5.264355855807662
77385;BMP280;66444;49.680;18.538;2024-01-27T08:25:47;98205.69351372718;;;5.264355855807662
77385;BMP280;66444;49.680;18.538;2024-01-27T08:30:55;98202.42604824738;;;5.345845917612314
77385;BMP280;66444;49.680;18.538;2024-01-27T08:36:04;98199.5050186719;;;5.361125138308853
77385;BMP280;66444;49.680;18.538;2024-01-27T08:41:12;98211.0586718207;;;5.401869470719248
77385;BMP280;66444;49.680;18.538;2024-01-27T08:46:21;98203.86293588435;;;5.457892319513485
77385;BMP280;66444;49.680;18.538;2024-01-27T08:51:29;98196.87963298756;;;5.549564552865922
77385;BMP280;66444;49.680;18.538;2024-01-27T08:56:39;98198.30620480822;;;5.661605832492933
77385;BMP280;66444;49.680;18.538;2024-01-27T09:01:48;98220.98732380648;;;5.671791263669729
77385;BMP280;66444;49.680;18.538;2024-01-27T09:06:57;98226.69378349844;;;5.743088629981503
77385;BMP280;66444;49.680;18.538;2024-01-27T09:12:05;98225.33801239237;;;5.768551698606461
77385;BMP280;66444;49.680;18.538;2024-01-27T09:17:14;98228.83382438548;;;5.722718070307747
77385;BMP280;66444;49.680;18.538;2024-01-27T09:22:23;98233.46981065252;;;5.804199750209227
77385;BMP280;66444;49.680;18.538;2024-01-27T09:27:31;98247.02384427104;;;5.737995998794213
77385;BMP280;66444;49.680;18.538;2024-01-27T09:32:40;98253.22435524792;;;5.641234900290146
77385;BMP280;66444;49.680;18.538;2024-01-27T09:37:49;98241.88379023586;;;5.636142152687535
77385;BMP280;66444;49.680;18.538;2024-01-27T09:42:58;98254.22575157415;;;5.681976671563461
77385;BMP280;66444;49.680;18.538;2024-01-27T09:48:08;98249.51629530011;;;5.651420378033071
77385;BMP280;66444;49.680;18.538;2024-01-27T09:53:20;98246.66793345238;;;5.804199750209227
77385;BMP280;66444;49.680;18.538;2024-01-27T09:58:29;98230.25836164967;;;5.83475499600172
77385;BMP280;66444;49.680;18.538;2024-01-27T10:03:40;98236.46055972627;;;5.9264194760937245
77385;BMP280;66444;49.680;18.538;2024-01-27T10:08:51;98241.81487391243;;;5.875494997762144
77385;BMP280;66444;49.680;18.538;2024-01-27T10:14:02;98247.66631181136;;;5.844940031366423
77385;BMP280;66444;49.680;18.538;2024-01-27T10:19:12;98235.81099996447;;;6.007897430704906
77385;BMP280;66444;49.680;18.538;2024-01-27T10:24:23;98235.38945767941;;;5.936604301910847
77385;BMP280;66444;49.680;18.538;2024-01-27T10:29:32;98241.38867712606;;;5.804199750209227
77385;BMP280;66444;49.680;18.538;2024-01-27T10:34:41;98251.4476167039;;;5.783829469932243
77385;BMP280;66444;49.680;18.538;2024-01-27T10:39:58;98242.09968559438;;;5.671791263669729
77385;BMP280;66444;49.680;18.538;2024-01-27T10:45:08;98242.09968559438;;;5.671791263669729
77385;BMP280;66444;49.680;18.538;2024-01-27T10:50:20;98247.3087213643;;;5.722718070307747
77385;BMP280;66444;49.680;18.538;2024-01-27T10:55:29;98256.72671546192;;;5.783829469932243
77385;BMP280;66444;49.680;18.538;2024-01-27T11:00:39;98245.23898605393;;;5.692162056174129
77385;BMP280;66444;49.680;18.538;2024-01-27T11:05:52;98256.14726808312;;;5.6259566400200125
77385;BMP280;66444;49.680;18.538;2024-01-27T11:11:04;98239.52924724472;;;5.620863874955103
77385;BMP280;66444;49.680;18.538;2024-01-27T11:16:15;98216.8493414913;;;5.610678327362985
77385;BMP280;66444;49.680;18.538;2024-01-27T11:21:26;98225.83493878192;;;5.600492756487801
77385;BMP280;66444;49.680;18.538;2024-01-27T11:26:35;98244.15492038119;;;5.513914463995024
77385;BMP280;66444;49.680;18.538;2024-01-27T11:31:49;98253.92337065355;;;5.508821570873261
77385;BMP280;66444;49.680;18.538;2024-01-27T11:37:09;98253.35683088636;;;5.539378842292353
77385;BMP280;66444;49.680;18.538;2024-01-27T11:42:21;98233.25056174406;;;5.580121544888243
77385;BMP280;66444;49.680;18.538;2024-01-27T11:47:31;98201.44403526423;;;5.681976671563461
77385;BMP280;66444;49.680;18.538;2024-01-27T11:52:40;98230.04558951748;;;5.7991071888711305
77385;BMP280;66444;49.680;18.538;2024-01-27T11:57:49;98228.54012378838;;;5.9264194760937245
77385;BMP280;66444;49.680;18.538;2024-01-27T12:02:57;98222.11154140682;;;5.987528081750497
77385;BMP280;66444;49.680;18.538;2024-01-27T12:08:07;98228.38653073023;;;6.028266686527059
77385;BMP280;66444;49.680;18.538;2024-01-27T12:13:21;98243.65575264128;;;6.058820395637303
77385;BMP280;66444;49.680;18.538;2024-01-27T12:18:36;98269.5649704671;;;6.038451279513538
77385;BMP280;66444;49.680;18.538;2024-01-27T12:23:50;98252.64953089633;;;6.048635849216953
77385;BMP280;66444;49.680;18.538;2024-01-27T12:29:00;98258.92618038581;;;6.089373895199969
77385;BMP280;66444;49.680;18.538;2024-01-27T12:34:09;98278.4837022632;;;6.079189418628812
77385;BMP280;66444;49.680;18.538;2024-01-27T12:39:19;98289.04710856617;;;6.079189418628812
77385;BMP280;66444;49.680;18.538;2024-01-27T12:44:30;98282.76831426748;;;6.038451279513538
77385;BMP280;66444;49.680;18.538;2024-01-27T12:49:40;98269.06665233601;;;6.018082070257515
77385;BMP280;66444;49.680;18.538;2024-01-27T12:54:49;98275.34465106583;;;6.058820395637303
77385;BMP280;66444;49.680;18.538;2024-01-27T12:59:59;98264.78164645826;;;6.058820395637303
77385;BMP280;66444;49.680;18.538;2024-01-27T13:05:12;98255.00325826544;;;6.06391266011633
77385;BMP280;66444;49.680;18.538;2024-01-27T13:10:21;98282.19577988195;;;6.06900491877459
77385;BMP280;66444;49.680;18.538;2024-01-27T13:15:30;98272.70389630775;;;6.058820395637303
77385;BMP280;66444;49.680;18.538;2024-01-27T13:20:39;98281.62278799863;;;6.099558348488062
77385;BMP280;66444;49.680;18.538;2024-01-27T13:25:48;98271.26973544029;;;6.135203751642257
77385;BMP280;66444;49.680;18.538;2024-01-27T13:30:57;98291.90015282435;;;6.114834984764457
77385;BMP280;66444;49.680;18.538;2024-01-27T13:36:06;98293.75629496871;;;6.109742778493091
77385;BMP280;66444;49.680;18.538;2024-01-27T13:41:16;98318.02453993974;;;6.130111568653956
77385;BMP280;66444;49.680;18.538;2024-01-27T13:46:26;98316.59738003666;;;6.018082070257515
77385;BMP280;66444;49.680;18.538;2024-01-27T13:51:36;98326.15890992408;;;5.977343372348696
77385;BMP280;66444;49.680;18.538;2024-01-27T13:56:55;98339.42819504734;;;5.9264194760937245
77385;BMP280;66444;49.680;18.538;2024-01-27T14:02:09;98347.9807257426;;;5.844940031366423
77385;BMP280;66444;49.680;18.538;2024-01-27T14:07:19;98342.1340982424;;;5.875494997762144
77385;BMP280;66444;49.680;18.538;2024-01-27T14:12:33;98340.12507825489;;;5.794014621712267
77385;BMP280;66444;49.680;18.538;2024-01-27T14:17:43;98380.22422080152;;;5.814384855423123
77385;BMP280;66444;49.680;18.538;2024-01-27T14:22:58;98365.51477010577;;;5.753273874893784
77385;BMP280;66444;49.680;18.538;2024-01-27T14:28:08;98363.37880858849;;;5.773644294869155
77385;BMP280;66444;49.680;18.538;2024-01-27T14:33:18;98369.2221083808;;;5.743088629981503
77385;BMP280;66444;49.680;18.538;2024-01-27T14:38:32;98413.1372757451;;;5.651420378033071
77385;BMP280;66444;49.680;18.538;2024-01-27T14:43:41;98385.67919877481;;;5.661605832492933
77385;BMP280;66444;49.680;18.538;2024-01-27T14:48:50;98383.76849802485;;;5.717625415837392
77385;BMP280;66444;49.680;18.538;2024-01-27T14:53:59;98412.57666330383;;;5.681976671563461
77385;BMP280;66444;49.680;18.538;2024-01-27T14:59:08;98388.3183414641;;;5.661605832492933
77385;BMP280;66444;49.680;18.538;2024-01-27T15:04:17;98404.71399396902;;;5.631049399264157
77385;BMP280;66444;49.680;18.538;2024-01-27T15:09:31;98407.35302207017;;;5.631049399264157
77385;BMP280;66444;49.680;18.538;2024-01-27T15:14:40;98413.69743147808;;;5.620863874955103
77385;BMP280;66444;49.680;18.538;2024-01-27T15:19:49;98433.46384191608;;;5.646327642071992
77385;BMP280;66444;49.680;18.538;2024-01-27T15:24:58;98444.80691861684;;;5.651420378033071
77385;BMP280;66444;49.680;18.538;2024-01-27T15:30:08;98457.72357294422;;;5.666698550991714
77385;BMP280;66444;49.680;18.538;2024-01-27T15:35:17;98474.34580745109;;;5.671791263669729
77385;BMP280;66444;49.680;18.538;2024-01-27T15:40:25;98486.47671368164;;;5.681976671563461
77385;BMP280;66444;49.680;18.538;2024-01-27T15:45:34;98505.46089973311;;;5.702347417501732
77385;BMP280;66444;49.680;18.538;2024-01-27T15:50:43;98500.73858873999;;;5.671791263669729
77385;BMP280;66444;49.680;18.538;2024-01-27T15:55:52;98496.85001456516;;;5.595399962319061
77385;BMP280;66444;49.680;18.538;2024-01-27T16:01:01;98510.13251501514;;;5.493542856583372
77385;BMP280;66444;49.680;18.538;2024-01-27T16:06:12;98527.10733034034;;;5.38149735108018
77385;BMP280;66444;49.680;18.538;2024-01-27T16:11:21;98534.23392375732;;;5.376404306618497
77385;BMP280;66444;49.680;18.538;2024-01-27T16:16:30;98537.93473443702;;;5.366218200232834
77385;BMP280;66444;49.680;18.538;2024-01-27T16:21:39;98544.30964625686;;;5.305101072974503
77385;BMP280;66444;49.680;18.538;2024-01-27T16:26:49;98555.40889213831;;;5.274542195023969
77385;BMP280;66444;49.680;18.538;2024-01-27T16:31:58;98557.93970569353;;;5.427334489300847
77385;BMP280;66444;49.680;18.538;2024-01-27T16:37:08;98559.03885067067;;;5.366218200232834
77385;BMP280;66444;49.680;18.538;2024-01-27T16:42:17;98575.65499787254;;;5.371311256336048
77385;BMP280;66444;49.680;18.538;2024-01-27T16:47:26;98588.09013554401;;;5.315287319058553
77385;BMP280;66444;49.680;18.538;2024-01-27T16:52:35;98583.36146829753;;;5.284728510957211
77385;BMP280;66444;49.680;18.538;2024-01-27T16:57:44;98601.33950868114;;;5.213423810480163
77385;BMP280;66444;49.680;18.538;2024-01-27T17:02:56;98618.22442894428;;;5.20323733156547
77385;BMP280;66444;49.680;18.538;2024-01-27T17:08:06;98607.13031530418;;;5.233796698460355
77385;BMP280;66444;49.680;18.538;2024-01-27T17:13:15;98617.13575462799;;;5.264355855807662
77385;BMP280;66444;49.680;18.538;2024-01-27T17:18:24;98624.5323230732;;;5.243983107525855
77385;BMP280;66444;49.680;18.538;2024-01-27T17:23:33;98631.38452641084;;;5.254169493308291
77385;BMP280;66444;49.680;18.538;2024-01-27T17:28:42;98637.69295990038;;;5.294914803607389
77385;BMP280;66444;49.680;18.538;2024-01-27T17:33:51;98642.42437744493;;;5.325473541859537
77385;BMP280;66444;49.680;18.538;2024-01-27T17:39:00;98664.07095861144;;;5.294914803607389
77385;BMP280;66444;49.680;18.538;2024-01-27T17:44:09;98671.68730860304;;;5.361125138308853
77385;BMP280;66444;49.680;18.538;2024-01-27T17:49:23;98680.88105021216;;;5.437520455988124
77385;BMP280;66444;49.680;18.538;2024-01-27T17:54:33;98693.55599767972;;;5.417148499330506
77385;BMP280;66444;49.680;18.538;2024-01-27T17:59:41;98689.88278534196;;;5.376404306618497
77385;BMP280;66444;49.680;18.538;2024-01-27T18:04:50;98695.97236998283;;;5.330566644528881
77385;BMP280;66444;49.680;18.538;2024-01-27T18:09:59;98703.61560756527;;;5.345845917612314
77385;BMP280;66444;49.680;18.538;2024-01-27T18:15:13;98695.18333868754;;;5.325473541859537
77385;BMP280;66444;49.680;18.538;2024-01-27T18:20:21;98709.9735678417;;;5.284728510957211
77385;BMP280;66444;49.680;18.538;2024-01-27T18:25:30;98721.06452609162;;;5.254169493308291
77385;BMP280;66444;49.680;18.538;2024-01-27T18:30:39;98714.21061613683;;;5.243983107525855
77385;BMP280;66444;49.680;18.538;2024-01-27T18:35:49;98735.85018571404;;;5.213423810480163
77385;BMP280;66444;49.680;18.538;2024-01-27T18:40:59;98749.55861182338;;;5.233796698460355
77385;BMP280;66444;49.680;18.538;2024-01-27T18:46:08;98743.24203640207;;;5.193050829367712
77385;BMP280;66444;49.680;18.538;2024-01-27T18:51:17;98765.39960073247;;;5.18286430388689
77385;BMP280;66444;49.680;18.538;2024-01-27T18:56:26;98764.34166656269;;;5.193050829367712
77385;BMP280;66444;49.680;18.538;2024-01-27T19:01:35;98775.3983086722;;;5.264355855807662
77385;BMP280;66444;49.680;18.538;2024-01-27T19:06:45;98797.03626433903;;;5.233796698460355
77385;BMP280;66444;49.680;18.538;2024-01-27T19:11:54;98793.87632451908;;;5.213423810480163
77385;BMP280;66444;49.680;18.538;2024-01-27T19:17:03;98801.800779462;;;5.162491183076054
77385;BMP280;66444;49.680;18.538;2024-01-27T19:22:12;98807.07551527972;;;5.162491183076054
77385;BMP280;66444;49.680;18.538;2024-01-27T19:27:21;98810.25564316532;;;5.080997768510133
77385;BMP280;66444;49.680;18.538;2024-01-27T19:32:30;98818.69085369742;;;5.10137126185
77385;BMP280;66444;49.680;18.538;2024-01-27T19:37:39;98822.3844160246;;;5.091184526821598
77385;BMP280;66444;49.680;18.538;2024-01-27T19:42:48;98838.206917968;;;5.091184526821598
77385;BMP280;66444;49.680;18.538;2024-01-27T19:47:57;98832.93274106742;;;5.091184526821598
77385;BMP280;66444;49.680;18.538;2024-01-27T19:53:06;98849.28589505336;;;5.060624182038009
77385;BMP280;66444;49.680;18.538;2024-01-27T19:58:15;98843.75178287708;;;5.024970181612298
77385;BMP280;66444;49.680;18.538;2024-01-27T20:03:24;98864.05558034124;;;5.019876729696989
77385;BMP280;66444;49.680;18.538;2024-01-27T20:08:33;98860.36620488476;;;4.979128904826939
77385;BMP280;66444;49.680;18.538;2024-01-27T20:13:42;98878.29553588758;;;4.958754852693528
77385;BMP280;66444;49.680;18.538;2024-01-27T20:18:51;98870.38436097195;;;5.009689808404073
77385;BMP280;66444;49.680;18.538;2024-01-27T20:24:01;98873.02113054777;;;5.009689808404073
77385;BMP280;66444;49.680;18.538;2024-01-27T20:29:10;98878.82265528772;;;4.979128904826939
77385;BMP280;66444;49.680;18.538;2024-01-27T20:34:19;98892.53332375335;;;4.999502863828093
77385;BMP280;66444;49.680;18.538;2024-01-27T20:39:28;98887.2598394648;;;4.999502863828093
77385;BMP280;66444;49.680;18.538;2024-01-27T20:44:37;98893.06044953137;;;4.968941890401766
77385;BMP280;66444;49.680;18.538;2024-01-27T20:49:46;98910.46255765406;;;4.979128904826939
77385;BMP280;66444;49.680;18.538;2024-01-27T20:54:55;98914.15533803009;;;5.019876729696989
77385;BMP280;66444;49.680;18.538;2024-01-27T21:00:12;98908.88198714785;;;5.070810986915603
77385;BMP280;66444;49.680;18.538;2024-01-27T21:05:26;98912.04640111838;;;5.091184526821598
77385;BMP280;66444;49.680;18.538;2024-01-27T21:10:39;98916.00196843558;;;5.116651320736855
77385;BMP280;66444;49.680;18.538;2024-01-27T21:15:53;98932.08959636449;;;5.152304587746039
77385;BMP280;66444;49.680;18.538;2024-01-27T21:21:07;98924.17600133142;;;5.20323733156547
77385;BMP280;66444;49.680;18.538;2024-01-27T21:26:20;98933.66949511257;;;5.264355855807662
77385;BMP280;66444;49.680;18.538;2024-01-27T21:31:34;98934.72245914882;;;5.305101072974503
77385;BMP280;66444;49.680;18.538;2024-01-27T21:36:48;98939.46915885415;;;5.335659741377458
77385;BMP280;66444;49.680;18.538;2024-01-27T21:42:01;98949.75394727051;;;5.401869470719248
77385;BMP280;66444;49.680;18.538;2024-01-27T21:47:16;98947.38050149134;;;5.386590389721095
77385;BMP280;66444;49.680;18.538;2024-01-27T21:52:30;98953.71611613709;;;5.325473541859537
77385;BMP280;66444;49.680;18.538;2024-01-27T21:57:44;98956.35561535665;;;5.274542195023969
77385;BMP280;66444;49.680;18.538;2024-01-27T22:02:58;98957.93826735273;;;5.284728510957211
77385;BMP280;66444;49.680;18.538;2024-01-27T22:08:12;98959.25678862464;;;5.310194198926911
77385;BMP280;66444;49.680;18.538;2024-01-27T22:13:26;98961.89493599089;;;5.310194198926911
77385;BMP280;66444;49.680;18.538;2024-01-27T22:18:39;98975.87716267066;;;5.315287319058553
77385;BMP280;66444;49.680;18.538;2024-01-27T22:23:53;98972.97505745006;;;5.279635355900973
77385;BMP280;66444;49.680;18.538;2024-01-27T22:29:06;98990.6496832418;;;5.274542195023969
77385;BMP280;66444;49.680;18.538;2024-01-27T22:34:20;98990.6496832418;;;5.274542195023969
77385;BMP280;66444;49.680;18.538;2024-01-27T22:39:33;98991.17806627309;;;5.294914803607389